TimeNZST,TemperatureF,Dew PointF,Humidity,Sea Level PressureIn,VisibilityMPH,Wind Direction,Wind SpeedMPH,Gust SpeedMPH,PrecipitationIn,Events,Conditions,WindDirDegrees,DateUTC
12:00 AM,44.6,42.8,93,30.33,6.2,East,11.5,-,N/A,,Unknown,80,2013-09-02 12:00:00
12:30 AM,44.6,42.8,93,30.33,6.2,East,10.4,-,N/A,,Unknown,90,2013-09-02 12:30:00
1:00 AM,44.6,42.8,93,30.30,6.2,East,11.5,-,N/A,,Unknown,80,2013-09-02 13:00:00
1:30 AM,44.6,42.8,93,30.30,6.2,East,10.4,-,N/A,,Unknown,80,2013-09-02 13:30:00
2:00 AM,42.8,41.0,93,30.27,6.2,East,9.2,-,N/A,,Unknown,80,2013-09-02 14:00:00
2:30 AM,44.6,42.8,93,30.27,6.2,East,11.5,-,N/A,,Unknown,80,2013-09-02 14:30:00
3:00 AM,41.0,39.2,93,30.24,6.2,ENE,3.5,-,N/A,,Unknown,60,2013-09-02 15:00:00
3:30 AM,37.4,37.4,100,30.24,6.2,ENE,8.1,-,N/A,,Unknown,60,2013-09-02 15:30:00
4:00 AM,39.2,39.2,100,30.24,6.2,NE,4.6,-,N/A,,Unknown,50,2013-09-02 16:00:00
4:30 AM,39.2,39.2,100,30.24,6.2,East,2.3,-,N/A,,Unknown,90,2013-09-02 16:30:00
5:00 AM,39.2,37.4,93,30.24,6.2,ESE,5.8,-,N/A,,Unknown,120,2013-09-02 17:00:00
5:30 AM,35.6,33.8,93,30.24,6.2,East,5.8,-,N/A,,Unknown,80,2013-09-02 17:30:00
6:00 AM,39.2,39.2,100,30.24,6.2,NNE,2.3,-,N/A,,Unknown,30,2013-09-02 18:00:00
6:30 AM,35.6,35.6,100,30.24,-9999.0,NNW,3.5,-,N/A,,Mist,330,2013-09-02 18:30:00
7:00 AM,35.6,33.8,93,30.24,3.7,North,2.3,-,N/A,,Unknown,360,2013-09-02 19:00:00
7:30 AM,33.8,33.8,100,30.24,6.2,North,3.5,-,N/A,,Unknown,350,2013-09-02 19:30:00
8:00 AM,35.6,35.6,100,30.24,6.2,NNW,3.5,-,N/A,,Unknown,340,2013-09-02 20:00:00
8:30 AM,42.8,41.0,93,30.24,6.2,NNW,3.5,-,N/A,,Unknown,340,2013-09-02 20:30:00
9:00 AM,44.6,42.8,93,30.24,6.2,WNW,1.2,-,N/A,,Unknown,290,2013-09-02 21:00:00
9:30 AM,48.2,44.6,87,30.27,6.2,SSW,2.3,-,N/A,,Mostly Cloudy,210,2013-09-02 21:30:00
10:00 AM,51.8,46.4,82,30.27,6.2,WSW,4.6,-,N/A,,Mostly Cloudy,250,2013-09-02 22:00:00
10:30 AM,53.6,42.8,67,30.27,6.2,WSW,6.9,-,N/A,,Unknown,250,2013-09-02 22:30:00
11:00 AM,55.4,44.6,67,30.27,6.2,SW,11.5,-,N/A,,Partly Cloudy,220,2013-09-02 23:00:00
11:30 AM,55.4,44.6,67,30.27,6.2,SSW,13.8,-,N/A,,Mostly Cloudy,210,2013-09-02 23:30:00
12:00 PM,57.2,42.8,59,30.27,6.2,SSW,10.4,-,N/A,,Mostly Cloudy,210,2013-09-03 00:00:00
12:30 PM,57.2,42.8,59,30.24,6.2,SSW,10.4,-,N/A,,Partly Cloudy,210,2013-09-03 00:30:00
1:00 PM,57.2,41.0,55,30.24,6.2,SW,5.8,-,N/A,,Mostly Cloudy,220,2013-09-03 01:00:00
1:30 PM,59.0,41.0,51,30.24,6.2,SW,5.8,-,N/A,,Mostly Cloudy,230,2013-09-03 01:30:00
2:00 PM,60.8,39.2,45,30.21,6.2,SW,4.6,-,N/A,,Partly Cloudy,230,2013-09-03 02:00:00
2:30 PM,60.8,41.0,48,30.21,6.2,SSW,10.4,-,N/A,,Scattered Clouds,210,2013-09-03 02:30:00
3:00 PM,59.0,42.8,55,30.21,6.2,South,12.7,-,N/A,,Unknown,190,2013-09-03 03:00:00
3:30 PM,57.2,42.8,59,30.18,6.2,SSW,11.5,-,N/A,,Unknown,210,2013-09-03 03:30:00
4:00 PM,55.4,42.8,63,30.18,6.2,SSW,15.0,-,N/A,,Unknown,200,2013-09-03 04:00:00
4:30 PM,55.4,42.8,63,30.18,6.2,SSW,13.8,-,N/A,,Unknown,210,2013-09-03 04:30:00
5:00 PM,55.4,42.8,63,30.18,6.2,South,6.9,-,N/A,,Unknown,180,2013-09-03 05:00:00
5:30 PM,51.8,44.6,76,30.18,6.2,SSW,4.6,-,N/A,,Unknown,210,2013-09-03 05:30:00
6:00 PM,50.0,42.8,76,30.18,6.2,SW,3.5,-,N/A,,Unknown,230,2013-09-03 06:00:00
6:30 PM,50.0,42.8,76,30.18,6.2,WNW,2.3,-,N/A,,Unknown,290,2013-09-03 06:30:00
7:00 PM,50.0,41.0,71,30.15,6.2,North,10.4,-,N/A,,Unknown,360,2013-09-03 07:00:00
7:30 PM,48.2,41.0,76,30.15,6.2,NNE,9.2,-,N/A,,Unknown,20,2013-09-03 07:30:00
8:00 PM,44.6,39.2,81,30.15,6.2,NNE,8.1,-,N/A,,Unknown,30,2013-09-03 08:00:00
8:30 PM,41.0,39.2,93,30.12,6.2,NE,6.9,-,N/A,,Unknown,50,2013-09-03 08:30:00
9:00 PM,42.8,39.2,87,30.12,6.2,NE,8.1,-,N/A,,Unknown,50,2013-09-03 09:00:00
9:30 PM,41.0,37.4,87,30.09,6.2,ENE,8.1,-,N/A,,Unknown,60,2013-09-03 09:30:00
10:00 PM,41.0,37.4,87,30.06,6.2,NE,8.1,-,N/A,,Scattered Clouds,50,2013-09-03 10:00:00
10:30 PM,39.2,37.4,93,30.06,6.2,ENE,6.9,-,N/A,,Overcast,60,2013-09-03 10:30:00
11:00 PM,41.0,39.2,93,30.04,-9999.0,ENE,8.1,-,N/A,,Clear,70,2013-09-03 11:00:00
11:30 PM,41.0,37.4,87,30.01,-9999.0,ENE,5.8,-,N/A,,Clear,60,2013-09-03 11:30:00